Aviation Digital Data Service (ADDS)

Output produced by METARs form (1438 UTC 28 July 2016)
found at http://aviationweather.gov/adds/metars/
 
KVQQ 281120Z 2812/2912 20003KT P6SM SCT050 
     FM281400 26007KT P6SM SCT030 SCT250 
     FM282100 21007KT P6SM VCSH BKN050 
     FM290200 24004KT P6SM SCT050 SCT250